sensor_id;sensor_type;location;lat;lon;timestamp;P1;durP1;ratioP1;P2;durP2;ratioP2
37905;SDS011;23739;51.448;6.674;2023-09-30T00:00:44;9.20;;;4.50;;
37905;SDS011;23739;51.448;6.674;2023-09-30T00:03:10;10.15;;;4.18;;
37905;SDS011;23739;51.448;6.674;2023-09-30T00:05:37;11.30;;;4.25;;
37905;SDS011;23739;51.448;6.674;2023-09-30T00:08:06;12.38;;;4.13;;
37905;SDS011;23739;51.448;6.674;2023-09-30T00:10:32;10.18;;;4.72;;
37905;SDS011;23739;51.448;6.674;2023-09-30T00:12:58;9.57;;;4.25;;
37905;SDS011;23739;51.448;6.674;2023-09-30T00:15:24;8.50;;;3.97;;
37905;SDS011;23739;51.448;6.674;2023-09-30T00:17:50;10.75;;;4.90;;
37905;SDS011;23739;51.448;6.674;2023-09-30T00:20:16;9.35;;;4.50;;
37905;SDS011;23739;51.448;6.674;2023-09-30T00:22:42;10.23;;;4.20;;
37905;SDS011;23739;51.448;6.674;2023-09-30T00:25:09;13.75;;;4.10;;
37905;SDS011;23739;51.448;6.674;2023-09-30T00:27:38;8.63;;;3.65;;
37905;SDS011;23739;51.448;6.674;2023-09-30T00:30:04;9.45;;;4.53;;
37905;SDS011;23739;51.448;6.674;2023-09-30T00:32:31;10.20;;;4.88;;
37905;SDS011;23739;51.448;6.674;2023-09-30T00:34:58;12.30;;;5.40;;
37905;SDS011;23739;51.448;6.674;2023-09-30T00:37:24;11.15;;;4.35;;
37905;SDS011;23739;51.448;6.674;2023-09-30T00:39:50;10.10;;;4.18;;
37905;SDS011;23739;51.448;6.674;2023-09-30T00:42:16;11.90;;;4.15;;
37905;SDS011;23739;51.448;6.674;2023-09-30T00:44:43;11.50;;;5.15;;
37905;SDS011;23739;51.448;6.674;2023-09-30T00:47:09;16.35;;;5.15;;
37905;SDS011;23739;51.448;6.674;2023-09-30T00:49:35;13.50;;;5.35;;
37905;SDS011;23739;51.448;6.674;2023-09-30T00:52:01;13.38;;;4.60;;
37905;SDS011;23739;51.448;6.674;2023-09-30T00:54:28;12.05;;;5.15;;
37905;SDS011;23739;51.448;6.674;2023-09-30T00:56:55;13.70;;;4.95;;
37905;SDS011;23739;51.448;6.674;2023-09-30T00:59:21;15.13;;;5.55;;
37905;SDS011;23739;51.448;6.674;2023-09-30T01:01:47;8.63;;;4.65;;
37905;SDS011;23739;51.448;6.674;2023-09-30T01:04:14;12.48;;;5.70;;
37905;SDS011;23739;51.448;6.674;2023-09-30T01:06:40;12.45;;;4.95;;
37905;SDS011;23739;51.448;6.674;2023-09-30T01:09:07;10.18;;;4.95;;
37905;SDS011;23739;51.448;6.674;2023-09-30T01:11:34;11.55;;;5.75;;
37905;SDS011;23739;51.448;6.674;2023-09-30T01:14:00;10.52;;;5.22;;
37905;SDS011;23739;51.448;6.674;2023-09-30T01:16:26;13.32;;;5.45;;
37905;SDS011;23739;51.448;6.674;2023-09-30T01:18:52;14.57;;;6.22;;
37905;SDS011;23739;51.448;6.674;2023-09-30T01:21:18;15.55;;;6.43;;
37905;SDS011;23739;51.448;6.674;2023-09-30T01:23:44;15.98;;;6.53;;
37905;SDS011;23739;51.448;6.674;2023-09-30T01:26:11;11.45;;;6.28;;
37905;SDS011;23739;51.448;6.674;2023-09-30T01:28:38;20.15;;;8.07;;
37905;SDS011;23739;51.448;6.674;2023-09-30T01:31:04;13.05;;;5.32;;
37905;SDS011;23739;51.448;6.674;2023-09-30T01:33:31;11.02;;;5.72;;
37905;SDS011;23739;51.448;6.674;2023-09-30T01:35:57;14.02;;;6.57;;
37905;SDS011;23739;51.448;6.674;2023-09-30T01:38:24;15.05;;;5.15;;
37905;SDS011;23739;51.448;6.674;2023-09-30T01:40:50;12.90;;;5.70;;
37905;SDS011;23739;51.448;6.674;2023-09-30T01:43:16;19.05;;;6.15;;
37905;SDS011;23739;51.448;6.674;2023-09-30T01:45:43;12.45;;;4.88;;
37905;SDS011;23739;51.448;6.674;2023-09-30T01:48:12;13.68;;;5.22;;
37905;SDS011;23739;51.448;6.674;2023-09-30T01:50:39;13.50;;;5.25;;
37905;SDS011;23739;51.448;6.674;2023-09-30T01:53:06;12.65;;;6.35;;
37905;SDS011;23739;51.448;6.674;2023-09-30T01:55:35;10.45;;;4.82;;
37905;SDS011;23739;51.448;6.674;2023-09-30T01:58:02;11.98;;;6.32;;
37905;SDS011;23739;51.448;6.674;2023-09-30T02:00:28;14.23;;;6.60;;
37905;SDS011;23739;51.448;6.674;2023-09-30T02:02:55;14.02;;;4.53;;
37905;SDS011;23739;51.448;6.674;2023-09-30T02:05:21;9.77;;;4.68;;
37905;SDS011;23739;51.448;6.674;2023-09-30T02:07:48;10.48;;;5.30;;
37905;SDS011;23739;51.448;6.674;2023-09-30T02:10:15;9.50;;;4.35;;
37905;SDS011;23739;51.448;6.674;2023-09-30T02:12:42;11.73;;;5.30;;
37905;SDS011;23739;51.448;6.674;2023-09-30T02:15:08;12.75;;;5.05;;
37905;SDS011;23739;51.448;6.674;2023-09-30T02:17:34;13.48;;;5.35;;
37905;SDS011;23739;51.448;6.674;2023-09-30T02:20:00;9.80;;;4.68;;
37905;SDS011;23739;51.448;6.674;2023-09-30T02:22:30;10.50;;;4.93;;
37905;SDS011;23739;51.448;6.674;2023-09-30T02:24:56;7.38;;;4.43;;
37905;SDS011;23739;51.448;6.674;2023-09-30T02:27:22;8.52;;;4.50;;
37905;SDS011;23739;51.448;6.674;2023-09-30T02:29:48;11.68;;;4.13;;
37905;SDS011;23739;51.448;6.674;2023-09-30T02:32:15;9.45;;;4.25;;
37905;SDS011;23739;51.448;6.674;2023-09-30T02:34:40;10.57;;;4.72;;
37905;SDS011;23739;51.448;6.674;2023-09-30T02:37:07;12.75;;;5.20;;
37905;SDS011;23739;51.448;6.674;2023-09-30T02:39:35;12.25;;;5.75;;
37905;SDS011;23739;51.448;6.674;2023-09-30T02:42:02;8.65;;;4.70;;
37905;SDS011;23739;51.448;6.674;2023-09-30T02:44:28;9.30;;;3.78;;
37905;SDS011;23739;51.448;6.674;2023-09-30T02:46:54;7.05;;;4.57;;
37905;SDS011;23739;51.448;6.674;2023-09-30T02:49:21;7.53;;;3.92;;
37905;SDS011;23739;51.448;6.674;2023-09-30T02:51:47;9.63;;;4.70;;
37905;SDS011;23739;51.448;6.674;2023-09-30T02:54:14;11.18;;;4.32;;
37905;SDS011;23739;51.448;6.674;2023-09-30T02:56:41;7.53;;;3.88;;
37905;SDS011;23739;51.448;6.674;2023-09-30T02:59:07;10.18;;;4.53;;
37905;SDS011;23739;51.448;6.674;2023-09-30T03:01:33;9.70;;;4.65;;
37905;SDS011;23739;51.448;6.674;2023-09-30T03:03:59;15.73;;;4.80;;
37905;SDS011;23739;51.448;6.674;2023-09-30T03:06:25;15.57;;;5.38;;
37905;SDS011;23739;51.448;6.674;2023-09-30T03:08:51;15.48;;;5.13;;
37905;SDS011;23739;51.448;6.674;2023-09-30T03:11:18;14.60;;;5.32;;
37905;SDS011;23739;51.448;6.674;2023-09-30T03:13:45;17.23;;;6.43;;
37905;SDS011;23739;51.448;6.674;2023-09-30T03:16:11;15.88;;;5.93;;
37905;SDS011;23739;51.448;6.674;2023-09-30T03:18:38;14.05;;;5.15;;
37905;SDS011;23739;51.448;6.674;2023-09-30T03:21:12;12.73;;;5.22;;
37905;SDS011;23739;51.448;6.674;2023-09-30T03:23:38;12.60;;;5.25;;
37905;SDS011;23739;51.448;6.674;2023-09-30T03:26:05;9.55;;;4.40;;
37905;SDS011;23739;51.448;6.674;2023-09-30T03:28:34;16.23;;;5.05;;
37905;SDS011;23739;51.448;6.674;2023-09-30T03:31:00;8.98;;;4.60;;
37905;SDS011;23739;51.448;6.674;2023-09-30T03:33:27;11.40;;;5.20;;
37905;SDS011;23739;51.448;6.674;2023-09-30T03:35:53;9.45;;;4.72;;
37905;SDS011;23739;51.448;6.674;2023-09-30T03:38:18;16.90;;;5.32;;
37905;SDS011;23739;51.448;6.674;2023-09-30T03:40:45;12.90;;;5.38;;
37905;SDS011;23739;51.448;6.674;2023-09-30T03:43:16;15.90;;;4.47;;
37905;SDS011;23739;51.448;6.674;2023-09-30T03:45:41;12.57;;;5.13;;
37905;SDS011;23739;51.448;6.674;2023-09-30T03:48:07;15.48;;;5.63;;
37905;SDS011;23739;51.448;6.674;2023-09-30T03:50:35;11.43;;;5.03;;
37905;SDS011;23739;51.448;6.674;2023-09-30T03:53:04;10.15;;;4.53;;
37905;SDS011;23739;51.448;6.674;2023-09-30T03:55:32;13.17;;;5.30;;
37905;SDS011;23739;51.448;6.674;2023-09-30T03:57:58;14.00;;;5.45;;
37905;SDS011;23739;51.448;6.674;2023-09-30T04:00:25;9.13;;;4.72;;
37905;SDS011;23739;51.448;6.674;2023-09-30T04:02:51;11.45;;;4.97;;
37905;SDS011;23739;51.448;6.674;2023-09-30T04:07:57;12.18;;;3.88;;
37905;SDS011;23739;51.448;6.674;2023-09-30T04:10:24;8.27;;;4.85;;
37905;SDS011;23739;51.448;6.674;2023-09-30T04:12:50;8.73;;;4.53;;
37905;SDS011;23739;51.448;6.674;2023-09-30T04:15:17;11.07;;;4.78;;
37905;SDS011;23739;51.448;6.674;2023-09-30T04:17:43;12.60;;;4.68;;
37905;SDS011;23739;51.448;6.674;2023-09-30T04:20:09;9.30;;;4.28;;
37905;SDS011;23739;51.448;6.674;2023-09-30T04:22:41;13.32;;;4.45;;
37905;SDS011;23739;51.448;6.674;2023-09-30T04:25:11;13.98;;;5.38;;
37905;SDS011;23739;51.448;6.674;2023-09-30T04:27:37;14.73;;;4.93;;
37905;SDS011;23739;51.448;6.674;2023-09-30T04:30:03;12.13;;;5.45;;
37905;SDS011;23739;51.448;6.674;2023-09-30T04:32:33;9.18;;;4.82;;
37905;SDS011;23739;51.448;6.674;2023-09-30T04:34:59;12.20;;;5.28;;
37905;SDS011;23739;51.448;6.674;2023-09-30T04:37:25;12.43;;;5.18;;
37905;SDS011;23739;51.448;6.674;2023-09-30T04:39:52;12.75;;;5.35;;
37905;SDS011;23739;51.448;6.674;2023-09-30T04:42:18;17.10;;;6.40;;
37905;SDS011;23739;51.448;6.674;2023-09-30T04:44:44;10.57;;;5.45;;
37905;SDS011;23739;51.448;6.674;2023-09-30T04:47:10;17.05;;;5.60;;
37905;SDS011;23739;51.448;6.674;2023-09-30T04:49:36;13.98;;;5.93;;
37905;SDS011;23739;51.448;6.674;2023-09-30T04:52:02;11.68;;;5.35;;
37905;SDS011;23739;51.448;6.674;2023-09-30T04:54:32;12.75;;;6.38;;
37905;SDS011;23739;51.448;6.674;2023-09-30T04:57:00;16.33;;;7.25;;
37905;SDS011;23739;51.448;6.674;2023-09-30T04:59:28;14.55;;;5.82;;
37905;SDS011;23739;51.448;6.674;2023-09-30T05:01:55;13.43;;;6.03;;
37905;SDS011;23739;51.448;6.674;2023-09-30T05:04:21;8.75;;;5.50;;
37905;SDS011;23739;51.448;6.674;2023-09-30T05:06:50;14.50;;;6.82;;
37905;SDS011;23739;51.448;6.674;2023-09-30T05:09:17;15.52;;;6.43;;
37905;SDS011;23739;51.448;6.674;2023-09-30T05:11:43;16.77;;;6.63;;
37905;SDS011;23739;51.448;6.674;2023-09-30T05:14:09;15.68;;;6.25;;
37905;SDS011;23739;51.448;6.674;2023-09-30T05:16:35;14.07;;;6.70;;
37905;SDS011;23739;51.448;6.674;2023-09-30T05:19:02;17.65;;;7.45;;
37905;SDS011;23739;51.448;6.674;2023-09-30T05:21:29;13.40;;;7.05;;
37905;SDS011;23739;51.448;6.674;2023-09-30T05:23:55;17.55;;;6.38;;
37905;SDS011;23739;51.448;6.674;2023-09-30T05:26:21;15.65;;;7.47;;
37905;SDS011;23739;51.448;6.674;2023-09-30T05:28:48;15.02;;;7.40;;
37905;SDS011;23739;51.448;6.674;2023-09-30T05:31:14;16.63;;;7.13;;
37905;SDS011;23739;51.448;6.674;2023-09-30T05:33:39;16.77;;;6.50;;
37905;SDS011;23739;51.448;6.674;2023-09-30T05:36:06;12.70;;;7.13;;
37905;SDS011;23739;51.448;6.674;2023-09-30T05:38:32;13.55;;;7.40;;
37905;SDS011;23739;51.448;6.674;2023-09-30T05:40:58;18.13;;;8.88;;
37905;SDS011;23739;51.448;6.674;2023-09-30T05:43:26;13.57;;;7.28;;
37905;SDS011;23739;51.448;6.674;2023-09-30T05:45:52;17.15;;;7.93;;
37905;SDS011;23739;51.448;6.674;2023-09-30T05:48:22;14.75;;;8.18;;
37905;SDS011;23739;51.448;6.674;2023-09-30T05:50:49;12.40;;;6.72;;
37905;SDS011;23739;51.448;6.674;2023-09-30T05:53:15;15.15;;;7.25;;
37905;SDS011;23739;51.448;6.674;2023-09-30T05:55:41;14.65;;;8.23;;
37905;SDS011;23739;51.448;6.674;2023-09-30T05:58:12;21.08;;;8.02;;
37905;SDS011;23739;51.448;6.674;2023-09-30T06:00:41;16.58;;;9.02;;
37905;SDS011;23739;51.448;6.674;2023-09-30T06:03:08;14.55;;;8.07;;
37905;SDS011;23739;51.448;6.674;2023-09-30T06:05:39;19.90;;;9.73;;
37905;SDS011;23739;51.448;6.674;2023-09-30T06:08:06;18.17;;;9.73;;
37905;SDS011;23739;51.448;6.674;2023-09-30T06:10:34;15.82;;;9.20;;
37905;SDS011;23739;51.448;6.674;2023-09-30T06:13:03;15.93;;;8.85;;
37905;SDS011;23739;51.448;6.674;2023-09-30T06:15:29;20.98;;;8.45;;
37905;SDS011;23739;51.448;6.674;2023-09-30T06:17:56;19.35;;;8.90;;
37905;SDS011;23739;51.448;6.674;2023-09-30T06:20:25;16.85;;;8.95;;
37905;SDS011;23739;51.448;6.674;2023-09-30T06:22:51;18.55;;;10.23;;
37905;SDS011;23739;51.448;6.674;2023-09-30T06:25:20;20.65;;;10.55;;
37905;SDS011;23739;51.448;6.674;2023-09-30T06:27:49;19.33;;;10.13;;
37905;SDS011;23739;51.448;6.674;2023-09-30T06:30:15;16.25;;;9.35;;
37905;SDS011;23739;51.448;6.674;2023-09-30T06:32:42;21.50;;;10.38;;
37905;SDS011;23739;51.448;6.674;2023-09-30T06:35:08;23.08;;;11.75;;
37905;SDS011;23739;51.448;6.674;2023-09-30T06:37:38;19.52;;;10.35;;
37905;SDS011;23739;51.448;6.674;2023-09-30T06:40:07;17.63;;;9.52;;
37905;SDS011;23739;51.448;6.674;2023-09-30T06:42:33;27.83;;;13.25;;
37905;SDS011;23739;51.448;6.674;2023-09-30T06:45:01;26.15;;;12.63;;
37905;SDS011;23739;51.448;6.674;2023-09-30T06:47:31;20.33;;;12.18;;
37905;SDS011;23739;51.448;6.674;2023-09-30T06:49:58;25.92;;;13.13;;
37905;SDS011;23739;51.448;6.674;2023-09-30T06:52:25;21.58;;;12.93;;
37905;SDS011;23739;51.448;6.674;2023-09-30T06:54:52;27.02;;;14.02;;
37905;SDS011;23739;51.448;6.674;2023-09-30T06:57:18;21.95;;;13.57;;
37905;SDS011;23739;51.448;6.674;2023-09-30T06:59:44;25.48;;;14.88;;
37905;SDS011;23739;51.448;6.674;2023-09-30T07:02:10;27.17;;;14.82;;
37905;SDS011;23739;51.448;6.674;2023-09-30T07:04:36;33.05;;;16.88;;
37905;SDS011;23739;51.448;6.674;2023-09-30T07:07:02;28.58;;;16.23;;
37905;SDS011;23739;51.448;6.674;2023-09-30T07:09:29;26.73;;;15.70;;
37905;SDS011;23739;51.448;6.674;2023-09-30T07:11:55;29.83;;;15.65;;
37905;SDS011;23739;51.448;6.674;2023-09-30T07:14:22;29.75;;;15.68;;
37905;SDS011;23739;51.448;6.674;2023-09-30T07:16:48;28.70;;;17.48;;
37905;SDS011;23739;51.448;6.674;2023-09-30T07:19:13;27.33;;;15.93;;
37905;SDS011;23739;51.448;6.674;2023-09-30T07:21:40;31.95;;;17.30;;
37905;SDS011;23739;51.448;6.674;2023-09-30T07:24:06;26.95;;;15.23;;
37905;SDS011;23739;51.448;6.674;2023-09-30T07:26:32;31.00;;;16.27;;
37905;SDS011;23739;51.448;6.674;2023-09-30T07:28:58;24.10;;;15.57;;
37905;SDS011;23739;51.448;6.674;2023-09-30T07:31:25;26.85;;;16.30;;
37905;SDS011;23739;51.448;6.674;2023-09-30T07:33:51;27.58;;;16.17;;
37905;SDS011;23739;51.448;6.674;2023-09-30T07:36:17;26.52;;;15.88;;
37905;SDS011;23739;51.448;6.674;2023-09-30T07:38:43;27.60;;;15.32;;
37905;SDS011;23739;51.448;6.674;2023-09-30T07:41:09;26.38;;;16.33;;
37905;SDS011;23739;51.448;6.674;2023-09-30T07:43:35;27.95;;;15.48;;
37905;SDS011;23739;51.448;6.674;2023-09-30T07:46:05;25.27;;;14.57;;
37905;SDS011;23739;51.448;6.674;2023-09-30T07:48:31;21.77;;;14.95;;
37905;SDS011;23739;51.448;6.674;2023-09-30T07:50:57;23.05;;;14.40;;
37905;SDS011;23739;51.448;6.674;2023-09-30T07:53:23;24.85;;;14.07;;
37905;SDS011;23739;51.448;6.674;2023-09-30T07:55:49;23.52;;;13.55;;
37905;SDS011;23739;51.448;6.674;2023-09-30T07:58:16;22.20;;;12.80;;
37905;SDS011;23739;51.448;6.674;2023-09-30T08:00:42;21.38;;;13.73;;
37905;SDS011;23739;51.448;6.674;2023-09-30T08:03:08;23.88;;;13.82;;
37905;SDS011;23739;51.448;6.674;2023-09-30T08:05:34;19.83;;;13.80;;
37905;SDS011;23739;51.448;6.674;2023-09-30T08:08:01;24.20;;;14.68;;
37905;SDS011;23739;51.448;6.674;2023-09-30T08:10:27;20.98;;;14.82;;
37905;SDS011;23739;51.448;6.674;2023-09-30T08:12:55;18.13;;;13.45;;
37905;SDS011;23739;51.448;6.674;2023-09-30T08:15:22;26.50;;;13.02;;
37905;SDS011;23739;51.448;6.674;2023-09-30T08:17:49;21.73;;;13.63;;
37905;SDS011;23739;51.448;6.674;2023-09-30T08:20:15;18.80;;;13.25;;
37905;SDS011;23739;51.448;6.674;2023-09-30T08:22:41;26.20;;;13.23;;
37905;SDS011;23739;51.448;6.674;2023-09-30T08:25:07;20.58;;;13.77;;
37905;SDS011;23739;51.448;6.674;2023-09-30T08:27:34;21.65;;;12.55;;
37905;SDS011;23739;51.448;6.674;2023-09-30T08:30:00;19.98;;;12.82;;
37905;SDS011;23739;51.448;6.674;2023-09-30T08:32:31;19.38;;;12.63;;
37905;SDS011;23739;51.448;6.674;2023-09-30T08:34:57;17.73;;;11.60;;
37905;SDS011;23739;51.448;6.674;2023-09-30T08:37:23;17.30;;;10.32;;
37905;SDS011;23739;51.448;6.674;2023-09-30T08:39:49;20.17;;;12.18;;
37905;SDS011;23739;51.448;6.674;2023-09-30T08:42:15;18.98;;;11.13;;
37905;SDS011;23739;51.448;6.674;2023-09-30T08:44:44;14.32;;;10.27;;
37905;SDS011;23739;51.448;6.674;2023-09-30T08:47:12;15.05;;;10.25;;
37905;SDS011;23739;51.448;6.674;2023-09-30T08:49:38;16.95;;;10.23;;
37905;SDS011;23739;51.448;6.674;2023-09-30T08:52:05;15.73;;;9.50;;
37905;SDS011;23739;51.448;6.674;2023-09-30T08:54:31;16.23;;;8.52;;
37905;SDS011;23739;51.448;6.674;2023-09-30T08:56:58;15.68;;;9.57;;
37905;SDS011;23739;51.448;6.674;2023-09-30T08:59:25;15.98;;;10.57;;
37905;SDS011;23739;51.448;6.674;2023-09-30T09:01:52;14.85;;;9.90;;
37905;SDS011;23739;51.448;6.674;2023-09-30T09:04:18;14.02;;;9.05;;
37905;SDS011;23739;51.448;6.674;2023-09-30T09:06:44;18.30;;;8.65;;
37905;SDS011;23739;51.448;6.674;2023-09-30T09:09:14;16.73;;;8.95;;
37905;SDS011;23739;51.448;6.674;2023-09-30T09:11:41;19.13;;;7.85;;
37905;SDS011;23739;51.448;6.674;2023-09-30T09:14:07;11.88;;;7.90;;
37905;SDS011;23739;51.448;6.674;2023-09-30T09:16:34;11.95;;;7.18;;
37905;SDS011;23739;51.448;6.674;2023-09-30T09:19:12;14.90;;;7.93;;
37905;SDS011;23739;51.448;6.674;2023-09-30T09:21:45;18.67;;;8.23;;
37905;SDS011;23739;51.448;6.674;2023-09-30T09:24:28;12.13;;;6.65;;
37905;SDS011;23739;51.448;6.674;2023-09-30T09:27:16;18.77;;;6.93;;
37905;SDS011;23739;51.448;6.674;2023-09-30T09:29:41;10.52;;;5.70;;
37905;SDS011;23739;51.448;6.674;2023-09-30T09:32:13;12.35;;;6.57;;
37905;SDS011;23739;51.448;6.674;2023-09-30T09:34:40;11.35;;;5.57;;
37905;SDS011;23739;51.448;6.674;2023-09-30T09:42:38;10.18;;;4.38;;
37905;SDS011;23739;51.448;6.674;2023-09-30T09:45:05;7.05;;;4.10;;
37905;SDS011;23739;51.448;6.674;2023-09-30T09:47:32;8.05;;;4.97;;
37905;SDS011;23739;51.448;6.674;2023-09-30T09:49:58;7.90;;;4.68;;
37905;SDS011;23739;51.448;6.674;2023-09-30T09:52:25;12.98;;;4.93;;
37905;SDS011;23739;51.448;6.674;2023-09-30T09:54:51;9.20;;;5.03;;
37905;SDS011;23739;51.448;6.674;2023-09-30T09:57:17;8.52;;;5.03;;
37905;SDS011;23739;51.448;6.674;2023-09-30T09:59:44;9.82;;;5.97;;
37905;SDS011;23739;51.448;6.674;2023-09-30T10:02:15;11.45;;;5.28;;
37905;SDS011;23739;51.448;6.674;2023-09-30T10:04:43;13.65;;;5.18;;
37905;SDS011;23739;51.448;6.674;2023-09-30T10:07:13;11.02;;;5.57;;
37905;SDS011;23739;51.448;6.674;2023-09-30T10:09:41;8.35;;;4.40;;
37905;SDS011;23739;51.448;6.674;2023-09-30T10:12:10;15.20;;;6.07;;
37905;SDS011;23739;51.448;6.674;2023-09-30T10:14:37;13.30;;;6.43;;
37905;SDS011;23739;51.448;6.674;2023-09-30T10:17:03;10.93;;;5.60;;
37905;SDS011;23739;51.448;6.674;2023-09-30T10:19:29;10.32;;;4.93;;
37905;SDS011;23739;51.448;6.674;2023-09-30T10:24:46;10.45;;;4.93;;
37905;SDS011;23739;51.448;6.674;2023-09-30T10:29:47;10.35;;;5.80;;
37905;SDS011;23739;51.448;6.674;2023-09-30T10:32:14;8.93;;;5.82;;
37905;SDS011;23739;51.448;6.674;2023-09-30T10:34:49;11.18;;;5.78;;
37905;SDS011;23739;51.448;6.674;2023-09-30T10:37:21;9.85;;;5.90;;
37905;SDS011;23739;51.448;6.674;2023-09-30T10:39:57;10.35;;;5.20;;
37905;SDS011;23739;51.448;6.674;2023-09-30T10:45:41;9.02;;;3.38;;
37905;SDS011;23739;51.448;6.674;2023-09-30T10:47:55;8.52;;;3.40;;
37905;SDS011;23739;51.448;6.674;2023-09-30T10:53:06;8.55;;;4.20;;
37905;SDS011;23739;51.448;6.674;2023-09-30T10:55:32;7.18;;;3.60;;
37905;SDS011;23739;51.448;6.674;2023-09-30T10:57:58;8.05;;;4.15;;
37905;SDS011;23739;51.448;6.674;2023-09-30T11:00:25;7.88;;;4.13;;
37905;SDS011;23739;51.448;6.674;2023-09-30T11:02:51;6.40;;;3.80;;
37905;SDS011;23739;51.448;6.674;2023-09-30T11:05:18;9.98;;;3.75;;
37905;SDS011;23739;51.448;6.674;2023-09-30T11:07:47;10.40;;;3.65;;
37905;SDS011;23739;51.448;6.674;2023-09-30T11:10:17;9.68;;;3.97;;
37905;SDS011;23739;51.448;6.674;2023-09-30T11:12:56;9.60;;;4.43;;
37905;SDS011;23739;51.448;6.674;2023-09-30T11:15:23;7.15;;;4.10;;
37905;SDS011;23739;51.448;6.674;2023-09-30T11:17:51;7.28;;;3.80;;
37905;SDS011;23739;51.448;6.674;2023-09-30T11:20:17;10.07;;;3.75;;
37905;SDS011;23739;51.448;6.674;2023-09-30T11:22:44;6.60;;;3.60;;
37905;SDS011;23739;51.448;6.674;2023-09-30T11:25:17;9.93;;;3.70;;
37905;SDS011;23739;51.448;6.674;2023-09-30T11:27:43;8.27;;;4.57;;
37905;SDS011;23739;51.448;6.674;2023-09-30T11:30:10;6.03;;;3.65;;
37905;SDS011;23739;51.448;6.674;2023-09-30T11:32:37;13.10;;;4.10;;
37905;SDS011;23739;51.448;6.674;2023-09-30T11:35:08;11.38;;;3.60;;
37905;SDS011;23739;51.448;6.674;2023-09-30T11:37:34;5.05;;;3.42;;
37905;SDS011;23739;51.448;6.674;2023-09-30T11:40:10;5.18;;;3.65;;
37905;SDS011;23739;51.448;6.674;2023-09-30T11:42:37;10.77;;;4.53;;
37905;SDS011;23739;51.448;6.674;2023-09-30T11:45:17;8.52;;;3.55;;
37905;SDS011;23739;51.448;6.674;2023-09-30T11:47:44;7.30;;;2.92;;
37905;SDS011;23739;51.448;6.674;2023-09-30T11:50:10;9.20;;;3.22;;
37905;SDS011;23739;51.448;6.674;2023-09-30T11:52:37;7.82;;;3.65;;
37905;SDS011;23739;51.448;6.674;2023-09-30T11:55:06;7.38;;;3.55;;
37905;SDS011;23739;51.448;6.674;2023-09-30T11:57:32;7.75;;;4.40;;
37905;SDS011;23739;51.448;6.674;2023-09-30T12:00:03;11.35;;;4.88;;
37905;SDS011;23739;51.448;6.674;2023-09-30T12:02:38;6.68;;;3.92;;
37905;SDS011;23739;51.448;6.674;2023-09-30T12:05:05;8.15;;;3.88;;
37905;SDS011;23739;51.448;6.674;2023-09-30T12:07:37;4.60;;;4.03;;
37905;SDS011;23739;51.448;6.674;2023-09-30T12:10:06;7.60;;;3.90;;
37905;SDS011;23739;51.448;6.674;2023-09-30T12:12:32;7.65;;;3.60;;
37905;SDS011;23739;51.448;6.674;2023-09-30T12:14:58;7.40;;;3.60;;
37905;SDS011;23739;51.448;6.674;2023-09-30T12:17:24;10.90;;;3.88;;
37905;SDS011;23739;51.448;6.674;2023-09-30T12:19:50;8.23;;;3.55;;
37905;SDS011;23739;51.448;6.674;2023-09-30T12:22:16;9.00;;;3.88;;
37905;SDS011;23739;51.448;6.674;2023-09-30T12:24:42;5.63;;;3.30;;
37905;SDS011;23739;51.448;6.674;2023-09-30T12:27:09;8.13;;;3.35;;
37905;SDS011;23739;51.448;6.674;2023-09-30T12:29:35;9.73;;;3.13;;
37905;SDS011;23739;51.448;6.674;2023-09-30T12:32:03;4.93;;;2.85;;
37905;SDS011;23739;51.448;6.674;2023-09-30T12:34:30;4.85;;;3.00;;
37905;SDS011;23739;51.448;6.674;2023-09-30T12:37:01;9.15;;;3.47;;
37905;SDS011;23739;51.448;6.674;2023-09-30T12:42:31;5.82;;;2.53;;
37905;SDS011;23739;51.448;6.674;2023-09-30T12:44:57;4.65;;;2.40;;
37905;SDS011;23739;51.448;6.674;2023-09-30T12:47:23;5.10;;;2.38;;
37905;SDS011;23739;51.448;6.674;2023-09-30T12:49:49;5.50;;;2.20;;
37905;SDS011;23739;51.448;6.674;2023-09-30T12:52:15;6.00;;;2.67;;
37905;SDS011;23739;51.448;6.674;2023-09-30T12:54:41;5.25;;;3.33;;
37905;SDS011;23739;51.448;6.674;2023-09-30T12:57:07;6.07;;;2.72;;
37905;SDS011;23739;51.448;6.674;2023-09-30T12:59:33;5.72;;;3.35;;
37905;SDS011;23739;51.448;6.674;2023-09-30T13:02:00;6.28;;;2.70;;
37905;SDS011;23739;51.448;6.674;2023-09-30T13:04:26;9.20;;;4.07;;
37905;SDS011;23739;51.448;6.674;2023-09-30T13:06:52;6.05;;;2.85;;
37905;SDS011;23739;51.448;6.674;2023-09-30T13:09:18;6.80;;;3.25;;
37905;SDS011;23739;51.448;6.674;2023-09-30T13:11:45;5.78;;;2.80;;
37905;SDS011;23739;51.448;6.674;2023-09-30T13:14:11;7.57;;;2.40;;
37905;SDS011;23739;51.448;6.674;2023-09-30T13:16:38;7.70;;;3.42;;
37905;SDS011;23739;51.448;6.674;2023-09-30T13:19:04;5.65;;;2.58;;
37905;SDS011;23739;51.448;6.674;2023-09-30T13:21:30;5.65;;;2.35;;
37905;SDS011;23739;51.448;6.674;2023-09-30T13:23:56;5.20;;;3.45;;
37905;SDS011;23739;51.448;6.674;2023-09-30T13:26:22;6.68;;;3.38;;
37905;SDS011;23739;51.448;6.674;2023-09-30T13:28:49;3.88;;;2.50;;
37905;SDS011;23739;51.448;6.674;2023-09-30T13:31:15;4.00;;;2.83;;
37905;SDS011;23739;51.448;6.674;2023-09-30T13:33:42;6.00;;;2.65;;
37905;SDS011;23739;51.448;6.674;2023-09-30T13:36:07;4.43;;;3.30;;
37905;SDS011;23739;51.448;6.674;2023-09-30T13:38:34;4.53;;;3.17;;
37905;SDS011;23739;51.448;6.674;2023-09-30T13:41:00;5.85;;;3.40;;
37905;SDS011;23739;51.448;6.674;2023-09-30T13:43:26;6.80;;;2.78;;
37905;SDS011;23739;51.448;6.674;2023-09-30T13:45:52;7.00;;;3.58;;
37905;SDS011;23739;51.448;6.674;2023-09-30T13:48:18;5.95;;;3.25;;
37905;SDS011;23739;51.448;6.674;2023-09-30T13:50:44;6.93;;;2.88;;
37905;SDS011;23739;51.448;6.674;2023-09-30T13:53:10;4.80;;;3.25;;
37905;SDS011;23739;51.448;6.674;2023-09-30T13:55:39;7.82;;;3.20;;
37905;SDS011;23739;51.448;6.674;2023-09-30T13:58:06;5.38;;;3.88;;
37905;SDS011;23739;51.448;6.674;2023-09-30T14:00:32;4.90;;;3.15;;
37905;SDS011;23739;51.448;6.674;2023-09-30T14:02:59;6.50;;;3.63;;
37905;SDS011;23739;51.448;6.674;2023-09-30T14:05:25;6.25;;;3.40;;
37905;SDS011;23739;51.448;6.674;2023-09-30T14:07:52;7.22;;;3.20;;
37905;SDS011;23739;51.448;6.674;2023-09-30T14:10:19;5.60;;;2.90;;
37905;SDS011;23739;51.448;6.674;2023-09-30T14:12:45;7.90;;;2.90;;
37905;SDS011;23739;51.448;6.674;2023-09-30T14:15:11;10.63;;;4.22;;
37905;SDS011;23739;51.448;6.674;2023-09-30T14:17:38;4.28;;;3.13;;
37905;SDS011;23739;51.448;6.674;2023-09-30T14:20:04;5.68;;;2.53;;
37905;SDS011;23739;51.448;6.674;2023-09-30T14:22:30;7.50;;;3.55;;
37905;SDS011;23739;51.448;6.674;2023-09-30T14:24:57;4.80;;;3.45;;
37905;SDS011;23739;51.448;6.674;2023-09-30T14:27:23;7.38;;;3.33;;
37905;SDS011;23739;51.448;6.674;2023-09-30T14:29:51;6.63;;;3.08;;
37905;SDS011;23739;51.448;6.674;2023-09-30T14:32:17;5.72;;;3.10;;
37905;SDS011;23739;51.448;6.674;2023-09-30T14:34:43;5.45;;;3.15;;
37905;SDS011;23739;51.448;6.674;2023-09-30T14:37:09;4.70;;;2.63;;
37905;SDS011;23739;51.448;6.674;2023-09-30T14:39:35;4.28;;;3.10;;
37905;SDS011;23739;51.448;6.674;2023-09-30T14:42:01;6.60;;;2.88;;
37905;SDS011;23739;51.448;6.674;2023-09-30T14:44:28;7.72;;;3.72;;
37905;SDS011;23739;51.448;6.674;2023-09-30T14:46:54;7.10;;;3.33;;
37905;SDS011;23739;51.448;6.674;2023-09-30T14:49:22;5.35;;;2.55;;
37905;SDS011;23739;51.448;6.674;2023-09-30T14:51:48;7.10;;;2.63;;
37905;SDS011;23739;51.448;6.674;2023-09-30T14:54:14;8.07;;;3.80;;
37905;SDS011;23739;51.448;6.674;2023-09-30T14:56:40;5.20;;;2.92;;
37905;SDS011;23739;51.448;6.674;2023-09-30T14:59:06;5.13;;;2.70;;